Hartford, Connecticut
Traffic Map
Current Weather Conditions
Hartford, Connecticut
Clear
Clear
12°
Feels Like: 12°
Wind Chill: 12° Ceiling: Unl
Heat Index: 12° Visibility: 10mi
Dew Point: -3° Wind: 9mph
Humidity: 34% Direction: 10° (N)
Pressure: 30.32in Gusts: 0mph
Raw Report DataKHFD 200053Z 01008KT 10SM CLR 12/M03 A3032 RMK AO2 SLP266 T01221033
Traffic Incident Summary
Active as of:
Severity:
Category:
InformationThere was an issue retrieving the traffic information for this location. Please try a different location or try again shortly.
Advertisements
At Last! Intellicast now available for iPhone and Android